• Join FlightAware (Why Join?)
  • Login
  • US Flag 
01:08AM EDT


 

Airport Tracker/Info


-or-


 

Live Flight TrackerFlight Track Log ✈ ASQ6151 ✈ 22-May-2013 ✈ KSAV - KORD

Flight Track Log - Related Links

Times and Time Zones

All times are in EDT time to prevent confusion due to time zone crossing. See the ASQ6151 flight status page for this flight to view local times or setup timezone preferences in your user account.

Time Position Orientation Groundspeed Altitude Reporting Facility
EDT Latitude Longitude Course Direction KTS MPH feet Rate Location/Type
08:01PM 32.1497 -81.1039 303° West 223 257 4,100  Level Jacksonville Center
08:02PM 32.2003 -81.1419 328° Northwest 245 282 5,800 2,100 Climbing Jacksonville Center
08:03PM 32.2514 -81.2197 308° West 263 303 8,400 2,160 Climbing Jacksonville Center
08:04PM 32.2961 -81.2853 309° West 278 320 10,200 1,200 Climbing Jacksonville Center
08:05PM 32.3475 -81.3703 306° West 293 337 10,900 1,140 Climbing Jacksonville Center
08:06PM 32.4542 -81.8993 303° West  Level FlightAware Approximate
08:06PM 32.4092 -81.4753 305° West 348 400 12,500  Level Jacksonville Center
08:07PM 32.4686 -81.5703 307° West 362 417 14,000 1,500 Climbing Jacksonville Center
08:08PM 32.5236 -81.6533 308° West 357 411 15,500 1,440 Climbing Jacksonville Center
08:11PM 32.6797 -81.8992 307° West 360 414 19,300 1,380 Climbing Atlanta Center
08:12PM 32.7419 -81.9939 308° West 360 414 20,600 1,200 Climbing Atlanta Center
08:13PM 32.7975 -82.0817 307° West 366 421 21,800 660 Climbing Atlanta Center
08:14PM 32.8617 -82.1817 307° West 376 433 22,000 60 Climbing Atlanta Center
08:15PM 32.9322 -82.2892 308° West 399 459 22,000  Level Atlanta Center
08:16PM 33.0069 -82.4014 308° West 425 489 22,000 360 Level Atlanta Center
08:17PM 33.0772 -82.5117 307° West 435 501 22,800 480 Climbing Atlanta Center
08:18PM 33.1308 -82.6347 298° West 425 489 23,000 60 Climbing Atlanta Center
08:19PM 33.1678 -82.7706 288° West 419 482 23,000 120 Level Atlanta Center
08:20PM 33.2067 -82.9017 290° West 425 489 23,300 840 Climbing Atlanta Center
08:21PM 33.2494 -83.0428 290° West 419 482 24,700 1,260 Climbing Atlanta Center
08:22PM 33.2797 -83.1667 286° West 401 461 25,900 1,200 Climbing Atlanta Center
08:23PM 33.3161 -83.2881 290° West 396 456 27,100 1,080 Climbing Atlanta Center
08:24PM 33.3500 -83.4122 288° West 396 456 28,100 960 Climbing Atlanta Center
08:25PM 33.3861 -83.5339 290° West 390 449 29,100 900 Climbing Atlanta Center
08:26PM 33.4181 -83.6581 287° West 385 443 29,900 420 Climbing Atlanta Center
08:27PM 33.4539 -83.7897 288° West 405 466 30,000  Climbing Atlanta Center
08:28PM 33.4894 -83.9267 287° West 426 490 30,000  Level Atlanta Center
08:29PM 33.5292 -84.0661 289° West 432 497 30,000  Level Atlanta Center
08:30PM 33.5603 -84.1883 287° West 437 503 30,000 120 Level Atlanta Center
08:31PM 33.5978 -84.3256 288° West 437 503 30,300 780 Climbing Atlanta Center
08:32PM 33.6664 -84.4381 306° West 421 484 31,600 1,140 Climbing Atlanta Center
08:33PM 33.7892 -84.4786 345° North 391 450 32,600 240 Climbing Atlanta Center
08:34PM 33.9081 -84.5069 349° North 416 479 32,100 -300 Descending Atlanta Center
08:35PM 34.0394 -84.5353 350° North 437 503 32,000 -60 Descending Atlanta Center
08:36PM 34.1689 -84.5661 349° North 461 531 32,000 480 Level Atlanta Center
08:37PM 34.2919 -84.5969 348° North 461 531 33,000 960 Climbing Atlanta Center
08:38PM 34.4086 -84.6256 349° North 450 518 34,000 480 Climbing Atlanta Center
08:39PM 34.5358 -84.6567 349° North 444 511 34,000  Level Atlanta Center
08:40PM 34.6608 -84.6853 349° North 451 519 34,000 120 Level Atlanta Center
08:41PM 34.7836 -84.7192 347° North 451 519 34,300 480 Climbing Atlanta Center
08:42PM 34.9089 -84.7506 348° North 451 519 35,000 420 Climbing Atlanta Center
08:43PM 35.0358 -84.7819 349° North 451 519 35,200 480 Climbing Atlanta Center
08:44PM 35.1589 -84.8136 348° North 451 519 36,000 360 Climbing Atlanta Center
08:45PM 35.2839 -84.8453 348° North 451 519 36,000  Level Atlanta Center
08:46PM 35.4089 -84.8744 349° North 451 519 36,000  Level Atlanta Center
08:47PM 35.5461 -84.9092 348° North 451 519 36,000  Level Atlanta Center
08:48PM 35.6711 -84.9411 348° North 451 519 36,000  Level Atlanta Center
08:49PM 35.8461 -84.9856 348° North 462 532 36,000  Level Indianapolis Center
08:50PM 35.9819 -85.0039 354° North 469 540 36,000  Level Indianapolis Center
08:51PM 36.1169 -85.0086 358° North 478 550 36,000  Level Indianapolis Center
08:52PM 36.2522 -85.0128 359° North 484 557 36,000  Level Indianapolis Center
08:53PM 36.3886 -85.0181 358° North 489 563 36,000  Level Indianapolis Center
08:54PM 36.5542 -85.0228 359° North 494 568 36,000  Level Indianapolis Center
08:55PM 36.6939 -85.0278 358° North 500 575 36,000  Level Indianapolis Center
08:56PM 36.8331 -85.0331 358° North 501 577 36,000  Level Indianapolis Center
08:57PM 36.9694 -85.0381 358° North 491 565 36,000  Level Indianapolis Center
08:58PM 37.0989 -85.0425 358° North 488 562 36,000  Level Indianapolis Center
08:59PM 37.2378 -85.0458 359° North 495 570 36,000  Level Indianapolis Center
09:00PM 37.3758 -85.0517 358° North 495 570 36,000  Level Indianapolis Center
09:01PM 37.5394 -85.0578 358° North 502 578 36,000  Level Indianapolis Center
09:02PM 37.6792 -85.0639 358° North 501 577 36,000  Level Indianapolis Center
09:03PM 37.8192 -85.0692 358° North 504 580 36,000  Level Indianapolis Center
09:04PM 37.9656 -85.0731 359° North 519 597 36,000  Level Indianapolis Center
09:05PM 38.1097 -85.0778 359° North 519 597 36,000  Level Indianapolis Center
09:07PM 38.2556 -85.0831 358° North 520 598 36,000  Level Indianapolis Center
09:08PM 38.3994 -85.0897 358° North 518 596 36,000  Level Indianapolis Center
09:09PM 38.5425 -85.0939 359° North 515 593 36,000  Level Indianapolis Center
09:10PM 38.6975 -85.1008 358° North 516 594 36,000  Level Indianapolis Center
09:11PM 38.8392 -85.1053 359° North 511 588 36,000  Level Indianapolis Center
09:12PM 38.9808 -85.1122 358° North 511 588 36,000  Level Indianapolis Center
09:13PM 39.1217 -85.1147 359° North 509 586 36,000  Level Indianapolis Center
09:14PM 39.2644 -85.1214 358° North 514 592 36,000  Level Indianapolis Center
09:15PM 39.4078 -85.1275 358° North 517 595 36,000  Level Indianapolis Center
09:16PM 39.5525 -85.1328 358° North 522 601 36,000  Level Indianapolis Center
09:17PM 39.7275 -85.1381 359° North 525 604 36,000  Level Indianapolis Center
09:18PM 39.8733 -85.1453 358° North 528 608 36,000 -300 Level Indianapolis Center
09:19PM 40.0192 -85.1503 358° North 527 606 35,400 -840 Descending Indianapolis Center
09:20PM 40.1672 -85.1561 358° North 533 613 34,400 -720 Descending Indianapolis Center
09:21PM 40.3161 -85.1608 359° North 538 619 34,000 -240 Descending Indianapolis Center
09:21PM 40.4044 -85.1639 358° North 536 617 34,000  Level Chicago Center
09:23PM 40.5844 -85.1742 358° North 543 625 34,000 -300 Level Chicago Center
09:24PM 40.7211 -85.2367 341° North 532 612 33,400 -900 Descending Chicago Center
09:25PM 40.8239 -85.3717 315° West 486 559 32,200 -1,980 Descending Chicago Center
09:26PM 40.9158 -85.5039 313° West 485 558 29,400 -2,820 Descending Chicago Center
09:27PM 41.0047 -85.6319 313° West 476 548 26,400 -2,100 Descending Chicago Center
09:28PM 41.0889 -85.7536 313° West 453 521 25,100 -720 Descending Chicago Center
09:29PM 41.1722 -85.8739 313° West 442 509 25,000 -540 Descending Chicago Center
09:30PM 41.2567 -85.9978 312° West 447 514 24,100 -1,620 Descending Chicago Center
09:31PM 41.2950 -86.1400 290° West 416 479 21,700 -2,520 Descending Chicago Center
09:32PM 41.3147 -86.3133 279° West 396 456 19,000 -2,280 Descending Chicago Center
09:33PM 41.3303 -86.4492 279° West 370 426 17,000 -2,160 Descending Chicago Center
09:34PM 41.3669 -86.5617 294° West 347 399 14,600 -2,100 Descending Chicago Center
09:35PM 41.4486 -86.6292 328° Northwest 347 399 12,700 -1,260 Descending Chicago Center
09:36PM 41.5306 -86.6925 330° Northwest 339 390 12,000 -360 Descending Chicago Center
09:37PM 41.6203 -86.7633 329° Northwest 332 382 12,000 -60 Level Chicago Center
09:38PM 41.6886 -86.8447 318° Northwest 334 384 11,900 -480 Descending Chicago Center
09:39PM 41.7486 -86.9356 312° West 331 381 11,100 -480 Descending Chicago Center
09:40PM 41.8053 -87.0250 310° West 320 368 11,000 -300 Descending Chicago Center
09:41PM 41.8589 -87.1064 312° West 300 345 10,600 -780 Descending Chicago Center
09:42PM 41.9194 -87.2022 310° West 284 327 9,500 -780 Descending Chicago Center
09:43PM 41.9681 -87.2792 310° West 276 318 9,000 -540 Descending Chicago Center
09:44PM 41.9839 -87.3739 283° West 269 310 8,400 -960 Descending Chicago Center
09:45PM 41.9831 -87.4681 269° West 257 296 7,100 -1,440 Descending Chicago Center
09:46PM 41.9828 -87.5561 270° West 242 278 5,500 -1,380 Descending Chicago Center
09:47PM 41.9847 -87.6417 272° West 215 247 4,300 -1,020 Descending Chicago Center
09:48PM 41.9839 -87.7039 269° West 190 219 3,400 -960 Descending Chicago Center
09:49PM 41.9839 -87.7667 270° West 178 205 2,400 -840 Descending Chicago Center
09:50PM 41.9836 -87.8253 270° West 170 196 1,700 -720 Descending Chicago Center
09:53PM 41.9667 -87.9000 270° West  Level FlightAware Approximate
10:00PM 41.9817 -87.9067 270° West  Level Estimated